Terminal Aerodrome Forecast
Issued by NWS

Home | Current Version | Previous Version | Text Only | Print | Product List | Glossary Off
Versions: 1 2 3 4 5 6 7 8 9 10 11 12 13 14 15 16 17 18

000
FTUS43 KUNR 240212 AAA
TAFGCC
TAF AMD
KGCC 240212Z 2402/2424 35011KT P6SM SCT060 OVC100
      TEMPO 2404/2408 -SHRA SCT040 OVC060
     FM240900 24007KT P6SM SCT050 OVC100
     FM241800 05008KT P6SM BKN150 PROB30 2418/2424 TS BKN050CB=

USA.gov is the U.S. government's official web portal to all federal, state and local government web resources and services.